createdAt,value
2023-03-02T00:00:02.468Z,38.10
2023-03-02T00:03:29.146Z,38.30
2023-03-02T00:06:34.623Z,39.90
2023-03-02T00:09:38.725Z,34.00
2023-03-02T00:12:42.570Z,33.70
2023-03-02T00:15:45.843Z,31.60
2023-03-02T00:18:49.196Z,29.30
2023-03-02T00:21:52.414Z,32.10
2023-03-02T00:24:55.628Z,30.70
2023-03-02T00:27:58.795Z,30.60
2023-03-02T00:31:05.344Z,30.80
2023-03-02T00:34:08.685Z,30.90
2023-03-02T00:37:11.885Z,31.20
2023-03-02T00:40:15.486Z,35.40
2023-03-02T00:43:18.785Z,36.30
2023-03-02T00:46:24.340Z,32.30
2023-03-02T00:49:28.271Z,33.50
2023-03-02T00:52:32.924Z,33.10
2023-03-02T00:55:37.729Z,32.30
2023-03-02T00:58:41.185Z,32.90
2023-03-02T01:01:44.633Z,34.30
2023-03-02T01:04:48.382Z,32.40
2023-03-02T01:07:51.649Z,32.00
2023-03-02T01:10:54.930Z,32.10
2023-03-02T01:13:58.172Z,32.10
2023-03-02T01:17:01.394Z,34.80
2023-03-02T01:20:06.322Z,34.70
2023-03-02T01:23:09.581Z,34.70
2023-03-02T01:26:12.918Z,36.30
2023-03-02T01:29:16.213Z,34.10
2023-03-02T01:32:19.498Z,34.70
2023-03-02T01:35:23.399Z,33.90
2023-03-02T01:38:27.253Z,35.10
2023-03-02T01:41:31.484Z,36.70
2023-03-02T01:44:47.651Z,41.80
2023-03-02T01:47:51.000Z,42.00
2023-03-02T01:50:55.507Z,41.40
2023-03-02T01:54:04.863Z,38.30
2023-03-02T01:57:09.284Z,37.20
2023-03-02T02:00:29.074Z,33.70
2023-03-02T02:03:32.476Z,32.40
2023-03-02T02:06:43.248Z,30.60
2023-03-02T02:09:49.829Z,30.60
2023-03-02T02:12:53.503Z,32.70
2023-03-02T02:15:56.760Z,34.70
2023-03-02T02:19:02.177Z,32.40
2023-03-02T02:22:05.415Z,32.70
2023-03-02T02:25:22.570Z,33.00
2023-03-02T02:28:31.859Z,32.10
2023-03-02T02:31:40.479Z,32.60
2023-03-02T02:34:49.165Z,31.10
2023-03-02T02:37:56.412Z,30.10
2023-03-02T02:41:04.374Z,31.00
2023-03-02T02:44:14.876Z,30.40
2023-03-02T02:47:21.882Z,28.60
2023-03-02T02:50:35.459Z,26.80
2023-03-02T02:53:45.187Z,25.90
2023-03-02T02:56:50.221Z,26.20
2023-03-02T03:00:01.029Z,26.80
2023-03-02T03:03:29.455Z,24.80
2023-03-02T03:06:42.444Z,23.20
2023-03-02T03:09:55.672Z,22.50
2023-03-02T03:12:59.193Z,22.00
2023-03-02T03:16:03.777Z,24.60
2023-03-02T03:19:18.401Z,22.80
2023-03-02T03:22:21.891Z,23.50
2023-03-02T03:25:27.441Z,22.20
2023-03-02T03:28:32.226Z,22.60
2023-03-02T03:31:35.867Z,22.80
2023-03-02T03:34:41.149Z,23.90
2023-03-02T03:37:56.874Z,25.70
2023-03-02T03:41:00.216Z,24.20
2023-03-02T03:44:04.707Z,26.70
2023-03-02T03:47:08.720Z,24.10
2023-03-02T03:50:12.770Z,23.20
2023-03-02T03:53:16.579Z,22.60
2023-03-02T03:56:19.835Z,23.20
2023-03-02T03:59:24.805Z,21.80
2023-03-02T04:02:31.845Z,22.90
2023-03-02T04:05:35.378Z,24.20
2023-03-02T04:08:40.062Z,23.70
2023-03-02T04:11:45.175Z,25.00
2023-03-02T04:14:48.787Z,25.40
2023-03-02T04:17:53.401Z,26.00
2023-03-02T04:20:58.161Z,25.50
2023-03-02T04:24:01.457Z,28.30
2023-03-02T04:27:04.824Z,26.20
2023-03-02T04:30:09.746Z,27.50
2023-03-02T04:33:13.321Z,26.10
2023-03-02T04:36:16.627Z,26.70
2023-03-02T04:39:20.464Z,26.00
2023-03-02T04:42:26.436Z,26.20
2023-03-02T04:45:29.611Z,25.30
2023-03-02T04:48:33.238Z,27.20
2023-03-02T04:51:43.046Z,26.90
2023-03-02T04:54:46.286Z,27.00
2023-03-02T04:57:49.748Z,29.70
2023-03-02T05:00:54.783Z,29.00
2023-03-02T05:03:58.089Z,29.30
2023-03-02T05:07:01.435Z,30.10
2023-03-02T05:10:04.924Z,28.80
2023-03-02T05:13:08.255Z,30.40
2023-03-02T05:16:11.649Z,30.40
2023-03-02T05:19:15.223Z,31.50
2023-03-02T05:22:18.497Z,31.00
2023-03-02T05:25:22.191Z,31.80
2023-03-02T05:28:26.579Z,30.60
2023-03-02T05:31:42.150Z,30.40
2023-03-02T05:34:45.430Z,31.30
2023-03-02T05:37:49.151Z,30.60
2023-03-02T05:40:52.320Z,30.10
2023-03-02T05:43:55.876Z,29.20
2023-03-02T05:46:59.126Z,27.30
2023-03-02T05:50:02.432Z,28.60
2023-03-02T05:53:05.846Z,33.50
2023-03-02T05:56:09.658Z,33.40
2023-03-02T05:59:13.043Z,38.80
2023-03-02T06:02:16.679Z,33.30
2023-03-02T06:05:20.256Z,36.80
2023-03-02T06:08:23.475Z,35.60
2023-03-02T06:11:26.669Z,35.50
2023-03-02T06:14:29.999Z,37.60
2023-03-02T06:17:33.549Z,34.40
2023-03-02T06:20:36.794Z,34.30
2023-03-02T06:23:40.254Z,35.30
2023-03-02T06:26:43.878Z,38.70
2023-03-02T06:29:47.083Z,39.50
2023-03-02T06:32:50.806Z,37.70
2023-03-02T06:35:54.201Z,35.00
2023-03-02T06:38:57.455Z,37.70
2023-03-02T06:42:00.941Z,37.60
2023-03-02T06:45:05.040Z,37.70
2023-03-02T06:48:08.413Z,37.80
2023-03-02T06:51:12.763Z,39.90
2023-03-02T06:54:15.980Z,38.40
2023-03-02T06:57:19.254Z,38.50
2023-03-02T07:00:28.272Z,38.20
2023-03-02T07:03:31.621Z,44.40
2023-03-02T07:06:34.824Z,58.30
2023-03-02T07:09:38.056Z,69.70
2023-03-02T07:12:42.466Z,70.50
2023-03-02T07:15:45.732Z,69.60
2023-03-02T07:18:48.959Z,71.70
2023-03-02T07:21:52.163Z,71.10
2023-03-02T07:24:55.372Z,72.70
2023-03-02T07:27:59.009Z,72.20
2023-03-02T07:31:02.341Z,70.50
2023-03-02T07:34:05.611Z,45.90
2023-03-02T07:37:08.787Z,34.90
2023-03-02T07:40:12.972Z,36.60
2023-03-02T07:43:16.183Z,32.60
2023-03-02T07:46:19.450Z,38.10
2023-03-02T07:49:22.715Z,38.60
2023-03-02T07:52:25.909Z,38.10
2023-03-02T07:55:29.464Z,37.70
2023-03-02T07:58:32.818Z,39.50
2023-03-02T08:01:36.520Z,39.50
2023-03-02T08:04:40.369Z,37.70
2023-03-02T08:07:46.047Z,36.00
2023-03-02T08:10:49.564Z,32.40
2023-03-02T08:14:02.851Z,29.20
2023-03-02T08:17:07.043Z,27.50
2023-03-02T08:20:11.100Z,24.30
2023-03-02T08:26:31.926Z,24.40
2023-03-02T08:29:35.868Z,25.70
2023-03-02T08:32:40.175Z,25.70
2023-03-02T08:35:43.571Z,27.40
2023-03-02T08:38:48.281Z,26.30
2023-03-02T08:41:55.979Z,26.90
2023-03-02T08:45:00.950Z,28.00
2023-03-02T08:48:04.403Z,28.40
2023-03-02T08:51:11.865Z,25.50
2023-03-02T08:54:16.263Z,21.70
2023-03-02T08:57:59.253Z,19.80
2023-03-02T09:00:52.802Z,20.20
2023-03-02T09:03:57.766Z,17.50
2023-03-02T09:07:01.217Z,16.60
2023-03-02T09:10:04.917Z,17.10
2023-03-02T09:13:21.923Z,17.60
2023-03-02T09:16:33.251Z,16.90
2023-03-02T09:19:44.671Z,16.80
2023-03-02T09:22:50.910Z,17.80
2023-03-02T09:25:56.322Z,15.80
2023-03-02T09:28:59.712Z,16.80
2023-03-02T09:32:03.164Z,14.80
2023-03-02T09:35:07.197Z,15.20
2023-03-02T09:38:16.202Z,14.10
2023-03-02T09:41:19.820Z,12.90
2023-03-02T09:44:32.567Z,11.40
2023-03-02T09:47:47.038Z,11.90
2023-03-02T09:51:11.887Z,12.10
2023-03-02T09:54:20.685Z,11.70
2023-03-02T09:57:29.078Z,11.40
2023-03-02T10:00:36.523Z,11.80
2023-03-02T10:03:57.723Z,11.40
2023-03-02T10:07:29.348Z,11.40
2023-03-02T10:11:00.986Z,11.50
2023-03-02T10:14:12.941Z,9.00
2023-03-02T10:17:16.303Z,8.90
2023-03-02T10:20:22.926Z,8.00
2023-03-02T10:23:48.540Z,8.90
2023-03-02T10:26:55.188Z,9.30
2023-03-02T10:30:33.865Z,9.30
2023-03-02T10:33:40.659Z,9.20
2023-03-02T10:36:47.651Z,10.50
2023-03-02T10:39:52.092Z,9.20
2023-03-02T10:42:57.098Z,10.10
2023-03-02T10:46:01.917Z,9.90
2023-03-02T10:49:05.403Z,9.30
2023-03-02T10:52:15.994Z,8.80
2023-03-02T10:55:19.469Z,9.90
2023-03-02T10:58:29.648Z,10.00
2023-03-02T11:01:32.988Z,8.80
2023-03-02T11:04:36.418Z,10.30
2023-03-02T11:07:39.839Z,8.90
2023-03-02T11:11:00.507Z,8.90
2023-03-02T11:14:14.539Z,8.50
2023-03-02T11:17:32.170Z,8.60
2023-03-02T11:20:43.647Z,8.50
2023-03-02T11:24:29.190Z,8.20
2023-03-02T11:27:37.019Z,9.20
2023-03-02T11:30:47.623Z,9.10
2023-03-02T11:34:11.767Z,9.70
2023-03-02T11:37:23.592Z,9.90
2023-03-02T11:40:34.750Z,9.80
2023-03-02T11:43:38.459Z,10.50
2023-03-02T11:46:48.696Z,10.40
2023-03-02T11:49:59.207Z,9.60
2023-03-02T11:53:08.295Z,10.80
2023-03-02T11:56:12.238Z,11.70
2023-03-02T11:59:21.178Z,11.20
2023-03-02T12:02:27.063Z,12.10
2023-03-02T12:05:35.943Z,10.70
2023-03-02T12:08:42.564Z,11.50
2023-03-02T12:12:32.928Z,11.80
2023-03-02T12:15:43.104Z,10.70
2023-03-02T12:18:51.301Z,11.20
2023-03-02T12:22:05.770Z,11.60
2023-03-02T12:25:21.395Z,11.10
2023-03-02T12:28:42.319Z,10.60
2023-03-02T12:31:56.669Z,10.40
2023-03-02T12:35:09.193Z,10.80
2023-03-02T12:38:34.035Z,9.50
2023-03-02T12:42:23.499Z,10.10
2023-03-02T12:45:48.871Z,9.10
2023-03-02T12:49:33.521Z,9.50
2023-03-02T12:52:56.622Z,9.70
2023-03-02T12:56:00.835Z,9.70
2023-03-02T12:59:04.239Z,9.40
2023-03-02T13:02:24.486Z,8.80
2023-03-02T13:05:33.690Z,8.80
2023-03-02T13:08:37.341Z,9.30
2023-03-02T13:11:44.321Z,8.90
2023-03-02T13:14:56.494Z,9.20
2023-03-02T13:18:03.981Z,8.30
2023-03-02T13:21:13.494Z,9.20
2023-03-02T13:24:36.163Z,9.00
2023-03-02T13:30:47.913Z,8.10
2023-03-02T13:33:53.728Z,8.40
2023-03-02T13:36:57.294Z,8.40
2023-03-02T13:40:30.303Z,9.00
2023-03-02T13:43:41.030Z,8.40
2023-03-02T13:46:48.287Z,10.10
2023-03-02T13:49:51.724Z,10.40
2023-03-02T13:53:06.377Z,9.30
2023-03-02T13:56:16.760Z,8.70
2023-03-02T13:59:22.268Z,8.20
2023-03-02T14:02:27.106Z,8.70
2023-03-02T14:05:33.610Z,8.50
2023-03-02T14:08:37.145Z,10.20
2023-03-02T14:11:43.930Z,9.20
2023-03-02T14:15:15.070Z,9.60
2023-03-02T14:18:36.705Z,9.00
2023-03-02T14:21:40.354Z,8.90
2023-03-02T14:24:59.705Z,9.40
2023-03-02T14:28:03.708Z,9.50
2023-03-02T14:31:10.045Z,9.40
2023-03-02T14:34:42.053Z,8.50
2023-03-02T14:37:44.742Z,9.70
2023-03-02T14:40:55.043Z,9.80
2023-03-02T14:43:58.421Z,9.90
2023-03-02T14:47:01.750Z,10.30
2023-03-02T14:50:06.196Z,9.80
2023-03-02T14:53:25.300Z,10.30
2023-03-02T14:56:29.011Z,9.10
2023-03-02T14:59:32.323Z,10.40
2023-03-02T15:02:35.820Z,11.70
2023-03-02T15:05:59.040Z,10.20
2023-03-02T15:09:29.021Z,10.60
2023-03-02T15:12:32.342Z,11.30
2023-03-02T15:15:44.801Z,11.30
2023-03-02T15:18:52.601Z,10.20
2023-03-02T15:21:57.183Z,11.70
2023-03-02T15:25:00.495Z,11.00
2023-03-02T15:28:04.107Z,10.40
2023-03-02T15:31:12.655Z,10.20
2023-03-02T15:34:16.792Z,10.70
2023-03-02T15:37:21.473Z,10.80
2023-03-02T15:40:25.695Z,12.60
2023-03-02T15:43:29.256Z,12.20
2023-03-02T15:46:32.809Z,12.00
2023-03-02T15:49:37.977Z,12.20
2023-03-02T15:52:42.064Z,11.30
2023-03-02T15:55:48.109Z,12.30
2023-03-02T15:58:51.671Z,13.40
2023-03-02T16:02:02.577Z,12.80
2023-03-02T16:05:06.211Z,11.80
2023-03-02T16:08:09.485Z,11.30
2023-03-02T16:11:18.746Z,10.10
2023-03-02T16:14:22.121Z,9.90
2023-03-02T16:17:25.359Z,10.80
2023-03-02T16:20:28.796Z,10.80
2023-03-02T16:23:32.076Z,11.60
2023-03-02T16:26:42.270Z,10.60
2023-03-02T16:29:45.577Z,10.20
2023-03-02T16:32:49.028Z,12.20
2023-03-02T16:35:52.269Z,12.40
2023-03-02T16:38:55.540Z,12.30
2023-03-02T16:41:58.781Z,12.50
2023-03-02T16:45:02.672Z,13.40
2023-03-02T16:48:06.558Z,15.30
2023-03-02T16:51:09.909Z,14.60
2023-03-02T16:54:22.291Z,15.90
2023-03-02T17:00:31.304Z,14.40
2023-03-02T17:03:38.423Z,15.40
2023-03-02T17:06:59.752Z,15.10
2023-03-02T17:13:23.247Z,15.30
2023-03-02T17:16:26.685Z,14.90
2023-03-02T17:19:29.965Z,15.00
2023-03-02T17:22:34.010Z,15.30
2023-03-02T17:25:37.569Z,15.80
2023-03-02T17:28:40.879Z,16.60
2023-03-02T17:31:44.903Z,16.60
2023-03-02T17:34:48.214Z,14.90
2023-03-02T17:37:51.536Z,17.30
2023-03-02T17:40:54.799Z,17.10
2023-03-02T17:43:58.286Z,17.20
2023-03-02T17:47:03.962Z,16.40
2023-03-02T17:50:07.409Z,16.40
2023-03-02T17:53:10.726Z,16.80
2023-03-02T17:56:19.130Z,16.80
2023-03-02T17:59:22.395Z,17.50
2023-03-02T18:02:30.801Z,16.60
2023-03-02T18:05:34.129Z,16.60
2023-03-02T18:08:37.654Z,17.00
2023-03-02T18:11:43.941Z,18.00
2023-03-02T18:14:47.183Z,16.90
2023-03-02T18:17:50.470Z,16.30
2023-03-02T18:20:55.185Z,18.10
2023-03-02T18:23:58.565Z,18.00
2023-03-02T18:27:02.338Z,18.50
2023-03-02T18:30:06.418Z,18.80
2023-03-02T18:33:16.902Z,18.90
2023-03-02T18:36:20.423Z,18.90
2023-03-02T18:39:27.444Z,18.50
2023-03-02T18:42:39.510Z,18.40
2023-03-02T18:45:43.400Z,19.20
2023-03-02T18:48:47.754Z,20.40
2023-03-02T18:51:53.080Z,20.20
2023-03-02T18:54:59.201Z,20.00
2023-03-02T18:58:03.034Z,21.20
2023-03-02T19:01:07.395Z,20.60
2023-03-02T19:04:10.940Z,20.00
2023-03-02T19:07:14.236Z,20.60
2023-03-02T19:10:19.518Z,18.90
2023-03-02T19:13:24.653Z,19.40
2023-03-02T19:16:28.169Z,18.70
2023-03-02T19:19:31.825Z,19.10
2023-03-02T19:22:35.012Z,20.50
2023-03-02T19:25:38.795Z,18.70
2023-03-02T19:28:42.028Z,18.20
2023-03-02T19:31:45.363Z,19.00
2023-03-02T19:34:48.973Z,18.80
2023-03-02T19:37:52.348Z,18.80
2023-03-02T19:40:57.948Z,19.90
2023-03-02T19:44:02.039Z,21.00
2023-03-02T19:47:06.259Z,19.50
2023-03-02T19:50:10.140Z,21.40
2023-03-02T19:53:13.915Z,22.10
2023-03-02T19:56:20.402Z,23.10
2023-03-02T19:59:24.720Z,23.20
2023-03-02T20:02:28.549Z,23.10
2023-03-02T20:05:39.111Z,22.20
2023-03-02T20:08:42.438Z,21.60
2023-03-02T20:11:47.238Z,22.40
2023-03-02T20:14:52.857Z,22.00
2023-03-02T20:17:58.437Z,24.00
2023-03-02T20:21:01.986Z,23.80
2023-03-02T20:24:06.118Z,23.70
2023-03-02T20:27:11.619Z,22.40
2023-03-02T20:30:39.934Z,23.90
2023-03-02T20:33:49.338Z,24.40
2023-03-02T20:36:52.742Z,25.50
2023-03-02T20:39:56.473Z,24.30
2023-03-02T20:42:59.744Z,24.40
2023-03-02T20:46:03.870Z,24.60
2023-03-02T20:49:09.656Z,24.10
2023-03-02T20:52:12.922Z,25.00
2023-03-02T20:55:16.582Z,25.10
2023-03-02T20:58:19.978Z,26.20
2023-03-02T21:01:24.180Z,26.40
2023-03-02T21:04:27.535Z,24.20
2023-03-02T21:07:30.828Z,25.40
2023-03-02T21:10:36.538Z,25.10
2023-03-02T21:13:40.030Z,25.90
2023-03-02T21:16:44.907Z,27.00
2023-03-02T21:19:48.078Z,25.00
2023-03-02T21:22:51.502Z,25.80
2023-03-02T21:25:54.791Z,26.10
2023-03-02T21:28:58.124Z,25.80
2023-03-02T21:32:01.348Z,26.80
2023-03-02T21:35:05.360Z,29.50
2023-03-02T21:38:09.511Z,28.90
2023-03-02T21:41:12.773Z,29.30
2023-03-02T21:44:16.155Z,30.30
2023-03-02T21:47:23.245Z,29.50
2023-03-02T21:50:30.390Z,30.20
2023-03-02T21:53:34.348Z,30.00
2023-03-02T21:56:37.782Z,27.60
2023-03-02T21:59:41.384Z,28.70
2023-03-02T22:02:45.155Z,28.00
2023-03-02T22:05:49.947Z,28.80
2023-03-02T22:08:54.285Z,27.70
2023-03-02T22:11:58.184Z,27.50
2023-03-02T22:15:04.453Z,28.70
2023-03-02T22:18:20.177Z,28.10
2023-03-02T22:21:43.676Z,26.80
2023-03-02T22:24:50.375Z,26.10
2023-03-02T22:27:54.108Z,28.00
2023-03-02T22:31:00.450Z,25.00
2023-03-02T22:34:13.264Z,27.20
2023-03-02T22:37:25.961Z,26.80
2023-03-02T22:40:30.925Z,26.40
2023-03-02T22:43:35.656Z,27.40
2023-03-02T22:46:40.320Z,26.70
2023-03-02T22:49:43.973Z,27.70
2023-03-02T22:52:47.603Z,26.90
2023-03-02T22:55:59.995Z,26.40
2023-03-02T23:02:18.512Z,25.90
2023-03-02T23:05:34.339Z,26.80
2023-03-02T23:08:37.662Z,27.30
2023-03-02T23:11:42.123Z,28.90
2023-03-02T23:14:50.359Z,29.90
2023-03-02T23:17:53.652Z,30.40
2023-03-02T23:20:57.698Z,29.60
2023-03-02T23:24:02.628Z,29.40
2023-03-02T23:27:06.395Z,30.70
2023-03-02T23:30:10.155Z,31.90
2023-03-02T23:33:13.584Z,32.10
2023-03-02T23:36:17.161Z,33.10
2023-03-02T23:39:20.536Z,34.60
2023-03-02T23:42:24.082Z,34.10
2023-03-02T23:45:27.483Z,38.50
2023-03-02T23:48:30.982Z,35.30
2023-03-02T23:51:34.443Z,35.60
2023-03-02T23:54:37.773Z,35.60
2023-03-02T23:57:41.514Z,36.30
